Time;durP1;ratioP1;P1;durP2;ratioP2;P2;SDS_P1;SDS_P2;PMS_P1;PMS_P2;Temp;Humidity;BMP_temperature;BMP_pressure;BME280_temperature;BME280_humidity;BME280_pressure;Samples;Min_cycle;Max_cycle;Signal;HPM_P1;HPM_P2
2023/05/15 00:00:43;;;;;;;43.03;29.25;;;14.30;99.90;;;;;;5009762;28;20034;-80
2023/05/15 00:03:09;;;;;;;47.67;27.35;;;14.20;99.90;;;;;;5013941;28;20080;-79
2023/05/15 00:05:34;;;;;;;45.60;28.50;;;14.20;99.90;;;;;;5008023;28;20042;-80
2023/05/15 00:08:00;;;;;;;47.20;27.77;;;14.20;99.90;;;;;;5018078;28;20033;-80
2023/05/15 00:10:26;;;;;;;72.57;30.60;;;14.10;99.90;;;;;;5017279;28;20042;-80
2023/05/15 00:12:51;;;;;;;45.30;27.52;;;14.00;99.90;;;;;;5021283;28;20117;-80
2023/05/15 00:15:17;;;;;;;66.13;29.58;;;14.00;99.90;;;;;;4999506;28;20042;-80
2023/05/15 00:17:43;;;;;;;51.22;28.55;;;13.90;99.90;;;;;;5020491;28;20061;-80
2023/05/15 00:20:09;;;;;;;46.13;27.90;;;13.90;99.90;;;;;;5001578;28;20046;-79
2023/05/15 00:22:35;;;;;;;42.13;26.77;;;13.80;99.90;;;;;;5003905;28;20049;-79
2023/05/15 00:25:01;;;;;;;56.05;28.42;;;13.80;99.90;;;;;;5001907;28;20543;-79
2023/05/15 00:27:27;;;;;;;60.42;27.42;;;13.70;99.90;;;;;;5016697;28;20048;-79
2023/05/15 00:29:53;;;;;;;102.95;31.05;;;13.70;99.90;;;;;;5017807;28;20041;-78
2023/05/15 00:32:19;;;;;;;40.17;24.83;;;13.70;99.90;;;;;;5013808;28;20120;-78
2023/05/15 00:34:44;;;;;;;52.13;28.73;;;13.70;99.90;;;;;;4988248;28;20472;-78
2023/05/15 00:37:10;;;;;;;54.33;29.60;;;13.70;99.90;;;;;;5012099;28;20135;-79
2023/05/15 00:39:36;;;;;;;58.20;28.40;;;13.60;99.90;;;;;;5020884;28;20054;-80
2023/05/15 00:42:06;;;;;;;63.17;27.67;;;13.60;99.90;;;;;;5000778;28;20042;-79
2023/05/15 00:44:33;;;;;;;62.15;29.40;;;13.50;99.90;;;;;;5002653;28;20496;-79
2023/05/15 00:47:01;;;;;;;53.85;28.90;;;13.50;99.90;;;;;;5004530;28;20076;-80
2023/05/15 00:49:28;;;;;;;42.47;27.08;;;13.50;99.90;;;;;;5019922;28;20084;-80
2023/05/15 00:51:56;;;;;;;43.40;28.77;;;13.50;99.90;;;;;;5013864;28;20038;-80
2023/05/15 00:54:23;;;;;;;50.13;29.23;;;13.60;99.90;;;;;;5000206;28;20057;-79
2023/05/15 00:56:50;;;;;;;45.88;28.23;;;13.60;99.90;;;;;;5007806;28;20041;-80
2023/05/15 00:59:17;;;;;;;54.28;30.48;;;13.60;99.90;;;;;;5021675;28;20515;-80
2023/05/15 01:01:44;;;;;;;54.83;27.30;;;13.60;99.90;;;;;;4997498;28;20065;-80
2023/05/15 01:04:10;;;;;;;49.55;27.77;;;13.60;99.90;;;;;;4992980;28;20486;-79
2023/05/15 01:06:36;;;;;;;59.35;30.75;;;13.60;99.90;;;;;;5019792;28;20052;-79
2023/05/15 01:09:05;;;;;;;49.10;27.98;;;13.40;99.90;;;;;;5027636;28;20090;-80
2023/05/15 01:11:36;;;;;;;49.13;29.48;;;13.40;99.90;;;;;;4999637;28;20045;-79
2023/05/15 01:14:04;;;;;;;44.95;29.85;;;13.40;99.90;;;;;;5021842;28;20038;-79
2023/05/15 01:16:30;;;;;;;46.97;28.63;;;13.40;99.90;;;;;;5023045;28;20065;-79
2023/05/15 01:18:56;;;;;;;46.72;29.02;;;13.40;99.90;;;;;;5002699;28;20077;-80
2023/05/15 01:21:33;;;;;;;46.60;28.65;;;13.40;99.90;;;;;;5004671;28;20033;-78
2023/05/15 01:24:21;;;;;;;52.00;31.40;;;13.40;99.90;;;;;;5005794;28;20049;-78
2023/05/15 01:27:15;;;;;;;44.67;28.30;;;13.40;99.90;;;;;;5008846;28;20045;-78
2023/05/15 01:29:53;;;;;;;48.47;29.13;;;13.40;99.90;;;;;;5024852;28;20080;-78
2023/05/15 01:32:56;;;;;;;47.90;29.40;;;13.40;99.90;;;;;;5017651;28;20045;-78
2023/05/15 01:35:44;;;;;;;46.05;29.00;;;13.30;99.90;;;;;;5028570;28;20038;-78
2023/05/15 01:38:46;;;;;;;48.20;31.17;;;13.30;99.90;;;;;;5004258;28;20547;-78
2023/05/15 01:41:35;;;;;;;46.75;27.95;;;13.30;99.90;;;;;;4985122;28;20049;-79
2023/05/15 01:44:05;;;;;;;49.25;29.50;;;13.30;99.90;;;;;;5002128;28;20058;-79
2023/05/15 01:46:35;;;;;;;44.65;29.05;;;13.30;99.90;;;;;;5022568;28;20091;-79
2023/05/15 01:49:02;;;;;;;45.50;28.17;;;13.20;99.90;;;;;;5003167;28;20041;-79
2023/05/15 01:51:30;;;;;;;42.00;27.58;;;13.20;99.90;;;;;;4999869;28;20053;-78
2023/05/15 01:53:58;;;;;;;46.25;30.23;;;13.20;99.90;;;;;;5026893;28;20045;-78
2023/05/15 01:56:26;;;;;;;42.85;28.42;;;13.20;99.90;;;;;;5021085;28;20408;-79
2023/05/15 01:58:53;;;;;;;44.13;27.63;;;13.20;99.90;;;;;;5007931;28;20041;-79
2023/05/15 02:01:19;;;;;;;51.38;31.92;;;13.20;99.90;;;;;;5025070;28;20042;-79
2023/05/15 02:03:45;;;;;;;49.45;30.50;;;13.30;99.90;;;;;;4989613;28;20047;-79
2023/05/15 02:06:12;;;;;;;43.58;27.42;;;13.30;99.90;;;;;;5006717;28;20416;-79
2023/05/15 02:08:39;;;;;;;42.90;28.55;;;13.30;99.90;;;;;;5004718;28;20125;-79
2023/05/15 02:11:06;;;;;;;48.72;29.40;;;13.30;99.90;;;;;;5011162;28;20121;-79
2023/05/15 02:13:32;;;;;;;48.50;29.75;;;13.30;99.90;;;;;;5012366;28;20061;-79
2023/05/15 02:15:58;;;;;;;48.45;30.58;;;13.30;99.90;;;;;;5024849;28;20121;-78
2023/05/15 02:18:24;;;;;;;48.13;31.13;;;13.30;99.90;;;;;;5019372;28;20076;-79
2023/05/15 02:20:50;;;;;;;46.53;29.05;;;13.30;99.90;;;;;;5008047;28;20034;-79
2023/05/15 02:23:16;;;;;;;49.03;29.77;;;13.30;99.90;;;;;;5002192;28;20151;-79
2023/05/15 02:26:01;;;;;;;43.92;27.42;;;13.30;99.90;;;;;;5023735;28;20050;-79
2023/05/15 02:29:11;;;;;;;46.72;30.05;;;13.30;99.90;;;;;;4991813;28;20087;-79
2023/05/15 02:31:58;;;;;;;44.25;28.73;;;13.30;99.90;;;;;;4999497;28;20064;-79
2023/05/15 02:34:44;;;;;;;45.25;27.92;;;13.30;99.90;;;;;;5029843;28;20366;-78
2023/05/15 02:37:17;;;;;;;48.80;30.67;;;13.30;99.90;;;;;;5009158;28;20057;-79
2023/05/15 02:39:44;;;;;;;46.67;28.40;;;13.20;99.90;;;;;;5006782;28;20064;-78
2023/05/15 02:42:13;;;;;;;48.05;31.00;;;13.20;99.90;;;;;;4999231;28;20042;-79
2023/05/15 02:44:41;;;;;;;44.88;28.92;;;13.20;99.90;;;;;;5009831;28;20042;-79
2023/05/15 02:47:07;;;;;;;43.47;28.33;;;13.20;99.90;;;;;;5008030;28;20124;-79
2023/05/15 02:49:34;;;;;;;49.20;31.17;;;13.20;99.90;;;;;;5023970;28;20046;-79
2023/05/15 02:52:00;;;;;;;45.03;28.73;;;13.20;99.90;;;;;;4988945;28;20064;-79
2023/05/15 02:54:26;;;;;;;42.35;28.30;;;13.20;99.90;;;;;;5017996;28;20037;-79
2023/05/15 02:56:51;;;;;;;49.70;31.48;;;13.20;99.90;;;;;;4999316;28;20464;-79
2023/05/15 02:59:18;;;;;;;46.67;30.65;;;13.20;99.90;;;;;;5022676;28;20094;-79
2023/05/15 03:01:48;;;;;;;45.03;31.80;;;13.20;99.90;;;;;;5024796;28;20034;-78
2023/05/15 03:04:14;;;;;;;42.92;28.52;;;13.20;99.90;;;;;;5027239;28;20051;-79
2023/05/15 03:06:39;;;;;;;52.42;29.77;;;13.10;99.90;;;;;;5029844;28;20434;-79
2023/05/15 03:09:05;;;;;;;44.25;28.10;;;13.10;99.90;;;;;;5022471;28;20504;-79
2023/05/15 03:11:31;;;;;;;45.92;28.65;;;13.10;99.90;;;;;;5005126;28;20049;-79
2023/05/15 03:13:58;;;;;;;41.47;27.80;;;13.10;99.90;;;;;;4988483;28;20045;-79
2023/05/15 03:16:25;;;;;;;45.92;27.13;;;13.00;99.90;;;;;;5011701;28;20569;-78
2023/05/15 03:18:51;;;;;;;52.75;30.65;;;13.00;99.90;;;;;;4998275;28;20045;-79
2023/05/15 03:21:17;;;;;;;51.95;29.83;;;13.00;99.90;;;;;;5007368;28;20110;-79
2023/05/15 03:23:43;;;;;;;49.47;29.70;;;13.00;99.90;;;;;;5024509;28;20067;-78
2023/05/15 03:26:09;;;;;;;46.10;29.67;;;13.00;99.90;;;;;;5019839;28;20085;-78
2023/05/15 03:28:34;;;;;;;51.42;29.20;;;13.00;99.90;;;;;;5024277;28;20094;-79
2023/05/15 03:31:00;;;;;;;49.10;29.38;;;13.00;99.90;;;;;;5002109;28;20080;-78
2023/05/15 03:33:26;;;;;;;51.42;32.28;;;13.00;99.90;;;;;;5023939;28;20041;-78
2023/05/15 03:35:51;;;;;;;54.78;29.20;;;12.90;99.90;;;;;;4995506;28;20074;-79
2023/05/15 03:38:19;;;;;;;52.80;27.98;;;12.80;99.90;;;;;;5009988;28;20045;-78
2023/05/15 03:40:44;;;;;;;43.50;28.35;;;12.80;99.90;;;;;;5004176;28;20476;-78
2023/05/15 03:43:10;;;;;;;46.28;28.17;;;12.80;99.90;;;;;;5003064;28;20052;-79
2023/05/15 03:45:36;;;;;;;43.20;27.85;;;12.70;99.90;;;;;;4999421;28;20124;-78
2023/05/15 03:48:01;;;;;;;40.30;26.80;;;12.70;99.90;;;;;;5004521;28;20097;-78
2023/05/15 03:50:27;;;;;;;45.35;28.35;;;12.70;99.90;;;;;;5015690;28;20034;-78
2023/05/15 03:52:53;;;;;;;46.10;27.45;;;12.70;99.90;;;;;;5007320;28;20040;-79
2023/05/15 03:55:19;;;;;;;42.42;26.95;;;12.60;99.90;;;;;;5023010;28;20129;-79
2023/05/15 03:57:44;;;;;;;43.08;27.33;;;12.60;99.90;;;;;;5024826;28;20046;-79
2023/05/15 04:00:11;;;;;;;51.45;27.50;;;12.60;99.90;;;;;;5022680;28;20526;-78
2023/05/15 04:02:37;;;;;;;44.88;27.73;;;12.60;99.90;;;;;;5002971;28;20089;-78
2023/05/15 04:05:04;;;;;;;49.03;26.48;;;12.50;99.90;;;;;;4995168;28;20065;-79
2023/05/15 04:07:31;;;;;;;54.30;26.55;;;12.40;99.90;;;;;;5005780;28;20069;-79
2023/05/15 04:10:00;;;;;;;39.42;24.17;;;12.30;99.90;;;;;;5021435;28;20461;-80
2023/05/15 04:12:31;;;;;;;39.40;24.90;;;12.30;99.90;;;;;;5022799;28;20291;-80
2023/05/15 04:15:12;;;;;;;44.17;25.17;;;12.30;99.90;;;;;;5026603;28;20051;-80
2023/05/15 04:17:37;;;;;;;44.20;26.35;;;12.30;99.90;;;;;;5017820;28;20049;-80
2023/05/15 04:20:05;;;;;;;37.28;23.50;;;12.30;99.90;;;;;;5002366;28;20053;-80
2023/05/15 04:22:30;;;;;;;42.17;25.50;;;12.30;99.90;;;;;;5021144;28;20405;-80
2023/05/15 04:24:56;;;;;;;40.05;24.63;;;12.30;99.90;;;;;;5022408;28;20038;-80
2023/05/15 04:27:22;;;;;;;40.75;24.08;;;12.30;99.90;;;;;;5019524;28;20042;-80
2023/05/15 04:29:47;;;;;;;39.47;24.13;;;12.30;99.90;;;;;;5026628;28;20116;-80
2023/05/15 04:32:13;;;;;;;41.42;24.48;;;12.30;99.90;;;;;;5024849;28;20050;-80
2023/05/15 04:34:39;;;;;;;41.80;25.08;;;12.40;99.90;;;;;;5005338;28;20461;-80
2023/05/15 04:37:05;;;;;;;43.88;24.88;;;12.40;99.90;;;;;;5001079;28;20060;-80
2023/05/15 04:39:31;;;;;;;39.25;23.83;;;12.30;99.90;;;;;;5020471;28;20041;-80
2023/05/15 04:41:57;;;;;;;36.92;22.75;;;12.40;99.90;;;;;;5020642;28;20527;-80
2023/05/15 04:44:22;;;;;;;39.90;23.88;;;12.40;99.90;;;;;;5005998;28;20037;-80
2023/05/15 04:46:48;;;;;;;37.25;24.17;;;12.40;99.90;;;;;;5007133;28;20042;-80
2023/05/15 04:49:14;;;;;;;35.78;22.65;;;12.30;99.90;;;;;;5010464;28;20476;-80
2023/05/15 04:51:40;;;;;;;39.92;23.50;;;12.30;99.90;;;;;;5022804;28;20435;-80
2023/05/15 04:54:06;;;;;;;36.28;22.58;;;12.30;99.90;;;;;;5021889;28;20052;-80
2023/05/15 04:56:32;;;;;;;43.53;23.67;;;12.30;99.90;;;;;;5002108;28;20392;-80
2023/05/15 04:58:58;;;;;;;39.20;23.52;;;12.30;99.90;;;;;;5017311;28;20030;-80
2023/05/15 05:01:23;;;;;;;32.95;22.08;;;12.30;99.90;;;;;;5002612;28;20057;-80
2023/05/15 05:03:49;;;;;;;31.70;20.48;;;12.30;99.90;;;;;;5026144;28;20726;-80
2023/05/15 05:06:15;;;;;;;31.98;19.88;;;12.40;99.90;;;;;;5006766;28;20117;-80
2023/05/15 05:08:40;;;;;;;32.40;20.10;;;12.30;99.90;;;;;;5005842;28;20041;-80
2023/05/15 05:11:06;;;;;;;34.13;20.83;;;12.40;99.90;;;;;;5005686;28;20046;-80
2023/05/15 05:13:32;;;;;;;30.38;21.50;;;12.40;99.90;;;;;;5008520;28;20034;-80
2023/05/15 05:15:57;;;;;;;32.78;20.52;;;12.40;99.90;;;;;;5008096;28;20033;-80
2023/05/15 05:18:23;;;;;;;32.55;19.73;;;12.40;99.90;;;;;;5019972;28;20041;-80
2023/05/15 05:20:49;;;;;;;30.58;21.08;;;12.40;99.90;;;;;;5007373;28;20199;-80
2023/05/15 05:23:15;;;;;;;32.05;21.85;;;12.40;99.90;;;;;;5024384;28;20033;-79
2023/05/15 05:25:40;;;;;;;30.92;20.58;;;12.40;99.90;;;;;;5021571;28;20715;-79
2023/05/15 05:28:06;;;;;;;28.42;20.08;;;12.50;99.90;;;;;;5028981;28;20156;-79
2023/05/15 05:30:32;;;;;;;30.13;20.15;;;12.50;99.90;;;;;;5028470;28;20045;-79
2023/05/15 05:32:57;;;;;;;29.40;20.90;;;12.50;99.90;;;;;;5020060;28;20185;-79
2023/05/15 05:35:24;;;;;;;29.88;21.67;;;12.60;99.90;;;;;;5020727;28;20046;-79
2023/05/15 05:37:50;;;;;;;26.90;20.00;;;12.60;99.90;;;;;;5005198;28;20412;-80
2023/05/15 05:40:16;;;;;;;30.83;20.63;;;12.70;99.90;;;;;;5013336;28;20041;-79
2023/05/15 05:42:42;;;;;;;29.58;20.65;;;12.80;99.90;;;;;;5002918;28;20033;-81
2023/05/15 05:45:08;;;;;;;30.25;21.90;;;12.80;99.90;;;;;;5026051;28;20477;-80
2023/05/15 05:47:34;;;;;;;25.20;20.17;;;12.80;99.90;;;;;;4993716;28;20051;-81
2023/05/15 05:49:59;;;;;;;26.60;19.52;;;12.90;99.90;;;;;;5025062;28;20142;-79
2023/05/15 05:52:25;;;;;;;25.58;18.42;;;12.80;99.90;;;;;;5014290;28;20037;-80
2023/05/15 05:54:51;;;;;;;26.70;18.90;;;12.80;99.90;;;;;;5004322;28;20107;-80
2023/05/15 05:57:17;;;;;;;25.63;18.02;;;12.80;99.90;;;;;;5007539;28;20495;-80
2023/05/15 05:59:42;;;;;;;27.20;18.55;;;12.90;99.90;;;;;;5027983;28;20034;-82
2023/05/15 06:02:08;;;;;;;26.30;18.40;;;12.90;99.90;;;;;;5012935;28;20488;-80
2023/05/15 06:04:34;;;;;;;25.52;18.67;;;13.00;99.90;;;;;;4995030;28;20042;-80
2023/05/15 06:07:00;;;;;;;24.55;17.90;;;13.00;99.90;;;;;;5001778;28;20401;-80
2023/05/15 06:09:26;;;;;;;25.10;17.30;;;13.10;99.90;;;;;;5010806;28;20077;-80
2023/05/15 06:11:52;;;;;;;22.33;17.20;;;13.10;99.90;;;;;;5015622;28;20033;-80
2023/05/15 06:14:18;;;;;;;24.25;17.60;;;13.10;99.90;;;;;;5013515;28;20087;-86
2023/05/15 06:16:43;;;;;;;25.98;18.60;;;13.30;99.90;;;;;;5029695;28;20041;-84
2023/05/15 06:19:09;;;;;;;24.77;18.38;;;13.30;99.90;;;;;;5007544;28;20455;-85
2023/05/15 06:21:35;;;;;;;21.88;15.80;;;13.20;99.90;;;;;;5027675;28;20113;-84
2023/05/15 06:24:01;;;;;;;23.90;16.75;;;13.10;99.90;;;;;;5030812;28;20034;-84
2023/05/15 06:26:26;;;;;;;25.20;17.17;;;13.10;99.90;;;;;;5025274;28;20059;-85
2023/05/15 06:28:52;;;;;;;23.48;16.98;;;13.20;99.90;;;;;;5012945;28;20453;-84
2023/05/15 06:31:18;;;;;;;23.77;16.35;;;13.20;99.90;;;;;;5009279;28;20049;-81
2023/05/15 06:33:43;;;;;;;23.85;16.98;;;13.20;99.90;;;;;;5018467;28;20042;-81
2023/05/15 06:36:09;;;;;;;22.20;15.93;;;13.20;99.90;;;;;;5016291;28;20499;-80
2023/05/15 06:38:35;;;;;;;22.58;17.35;;;13.20;99.90;;;;;;4996787;28;20053;-81
2023/05/15 06:41:00;;;;;;;24.75;17.20;;;13.20;99.90;;;;;;4984734;28;20057;-81
2023/05/15 06:43:26;;;;;;;24.77;16.48;;;13.20;99.90;;;;;;5012437;28;20053;-81
2023/05/15 06:45:52;;;;;;;21.83;16.67;;;13.30;99.90;;;;;;4999200;28;20045;-81
2023/05/15 06:48:18;;;;;;;16.80;13.25;;;13.30;99.90;;;;;;5014131;28;20527;-81
2023/05/15 06:50:44;;;;;;;18.42;14.60;;;13.30;99.90;;;;;;5004670;28;20041;-81
2023/05/15 06:53:09;;;;;;;19.02;13.55;;;13.30;99.90;;;;;;5018981;28;20037;-81
2023/05/15 06:55:36;;;;;;;21.10;15.35;;;13.30;99.90;;;;;;5004976;28;20034;-81
2023/05/15 06:58:03;;;;;;;25.17;14.63;;;13.40;99.90;;;;;;5003582;28;20499;-81
2023/05/15 07:00:29;;;;;;;21.73;15.55;;;13.30;99.90;;;;;;5020266;28;20117;-81
2023/05/15 07:02:54;;;;;;;23.08;16.40;;;13.40;99.90;;;;;;5002698;28;20105;-82
2023/05/15 07:05:20;;;;;;;20.73;14.55;;;13.40;99.90;;;;;;5005180;28;20041;-81
2023/05/15 07:07:46;;;;;;;19.42;14.93;;;13.40;99.90;;;;;;5003831;28;20630;-81
2023/05/15 07:10:12;;;;;;;19.30;13.98;;;13.40;99.90;;;;;;5020264;28;20045;-81
2023/05/15 07:12:40;;;;;;;18.35;12.48;;;13.50;99.90;;;;;;5018677;28;20410;-82
2023/05/15 07:15:09;;;;;;;19.52;13.95;;;13.60;99.90;;;;;;5006646;28;20049;-82
2023/05/15 07:17:35;;;;;;;18.00;12.68;;;13.70;99.90;;;;;;5004863;28;20205;-83
2023/05/15 07:20:00;;;;;;;18.23;13.50;;;13.80;99.90;;;;;;4999350;28;20049;-81
2023/05/15 07:22:27;;;;;;;18.80;14.27;;;13.90;99.90;;;;;;4994859;28;20473;-81
2023/05/15 07:24:53;;;;;;;17.90;13.35;;;14.10;99.90;;;;;;4994913;28;20559;-81
2023/05/15 07:27:19;;;;;;;22.23;14.98;;;14.30;99.90;;;;;;5017105;28;20049;-81
2023/05/15 07:29:45;;;;;;;18.60;14.52;;;14.60;99.90;;;;;;5019872;28;20041;-80
2023/05/15 07:32:11;;;;;;;17.65;13.80;;;14.70;99.90;;;;;;5021410;28;20234;-81
2023/05/15 07:34:37;;;;;;;19.88;14.20;;;14.80;99.90;;;;;;4999696;28;20395;-80
2023/05/15 07:37:03;;;;;;;22.88;14.43;;;14.90;99.90;;;;;;4999855;28;20085;-81
2023/05/15 07:39:29;;;;;;;18.27;13.18;;;15.00;99.90;;;;;;4998106;28;20133;-81
2023/05/15 07:41:55;;;;;;;20.52;13.60;;;15.00;99.90;;;;;;5001657;28;20052;-84
2023/05/15 07:44:21;;;;;;;16.95;12.85;;;15.10;99.90;;;;;;4985159;28;20514;-85
2023/05/15 07:46:46;;;;;;;17.05;13.18;;;15.10;99.90;;;;;;5014154;28;20033;-85
2023/05/15 07:49:12;;;;;;;18.23;12.23;;;15.30;99.90;;;;;;4991059;28;20048;-85
2023/05/15 07:51:39;;;;;;;17.73;12.63;;;15.30;99.90;;;;;;5005748;28;20698;-86
2023/05/15 07:54:05;;;;;;;13.23;10.30;;;15.30;99.90;;;;;;5020922;28;20104;-85
2023/05/15 07:56:32;;;;;;;16.33;11.77;;;15.40;99.90;;;;;;4999605;28;20049;-85
2023/05/15 07:58:57;;;;;;;16.52;12.40;;;15.50;99.90;;;;;;5012159;28;20042;-85
2023/05/15 08:01:23;;;;;;;17.50;13.18;;;15.60;99.90;;;;;;5003944;28;20395;-85
2023/05/15 08:03:49;;;;;;;16.83;12.93;;;15.60;99.90;;;;;;5002296;28;20041;-85
2023/05/15 08:06:15;;;;;;;16.17;11.45;;;15.60;99.90;;;;;;5022584;28;20393;-84
2023/05/15 08:08:40;;;;;;;17.38;10.68;;;15.60;99.90;;;;;;5014122;28;20125;-82
2023/05/15 08:11:06;;;;;;;17.70;10.98;;;15.60;99.90;;;;;;5025259;28;20037;-81
2023/05/15 08:13:32;;;;;;;15.38;10.35;;;15.60;99.90;;;;;;5007089;28;20506;-83
2023/05/15 08:15:58;;;;;;;15.95;11.50;;;15.60;99.90;;;;;;4993824;28;20038;-81
2023/05/15 08:18:23;;;;;;;14.23;10.73;;;15.60;99.90;;;;;;4986707;28;20081;-80
2023/05/15 08:20:51;;;;;;;15.02;10.40;;;15.60;99.90;;;;;;5020521;28;20072;-80
2023/05/15 08:23:16;;;;;;;13.70;11.10;;;15.70;99.90;;;;;;5003509;28;20046;-80
2023/05/15 08:25:42;;;;;;;12.68;10.30;;;15.80;99.90;;;;;;5006166;28;20095;-80
2023/05/15 08:28:09;;;;;;;14.65;10.90;;;15.90;99.90;;;;;;5018841;28;20051;-90
2023/05/15 08:30:35;;;;;;;13.07;10.00;;;15.90;99.90;;;;;;5002000;28;20038;-81
2023/05/15 08:33:01;;;;;;;15.18;9.32;;;16.00;99.90;;;;;;5008432;28;20044;-82
2023/05/15 08:35:26;;;;;;;13.02;10.05;;;16.10;99.90;;;;;;5000456;28;20056;-82
2023/05/15 08:37:52;;;;;;;14.93;9.90;;;16.10;99.90;;;;;;5024000;28;20054;-81
2023/05/15 08:40:18;;;;;;;14.07;10.52;;;16.20;99.90;;;;;;4998410;28;20037;-82
2023/05/15 08:42:49;;;;;;;11.82;9.45;;;16.30;99.90;;;;;;5017335;28;20040;-82
2023/05/15 08:45:15;;;;;;;12.73;9.48;;;16.40;99.90;;;;;;5020620;28;20044;-82
2023/05/15 08:47:42;;;;;;;12.15;9.95;;;16.50;99.90;;;;;;5003102;28;20037;-82
2023/05/15 08:50:14;;;;;;;11.50;9.13;;;16.60;99.90;;;;;;4993127;28;20053;-82
2023/05/15 08:52:47;;;;;;;13.95;9.45;;;16.70;99.90;;;;;;5005270;28;20030;-82
2023/05/15 08:55:14;;;;;;;12.35;9.10;;;16.80;99.90;;;;;;5001809;28;20124;-82
2023/05/15 08:57:40;;;;;;;13.73;10.27;;;16.90;99.90;;;;;;5003868;28;20502;-80
2023/05/15 09:00:08;;;;;;;12.23;9.75;;;16.90;99.90;;;;;;5011389;28;20085;-80
2023/05/15 09:02:38;;;;;;;13.02;9.20;;;17.00;99.90;;;;;;5002166;28;20480;-80
2023/05/15 09:05:05;;;;;;;12.20;8.85;;;17.10;99.90;;;;;;5014993;28;20041;-81
2023/05/15 09:07:31;;;;;;;14.75;9.55;;;17.20;99.90;;;;;;5020038;28;20033;-82
2023/05/15 09:09:58;;;;;;;14.07;11.10;;;17.30;99.90;;;;;;5018284;28;20048;-80
2023/05/15 09:12:25;;;;;;;13.45;9.38;;;17.40;99.90;;;;;;5015947;28;20081;-81
2023/05/15 09:15:06;;;;;;;11.45;8.80;;;17.40;99.90;;;;;;5024712;28;20076;-81
2023/05/15 09:17:32;;;;;;;14.05;9.57;;;17.50;99.90;;;;;;5015139;28;20081;-80
2023/05/15 09:20:07;;;;;;;11.95;9.13;;;17.50;99.90;;;;;;5015155;28;20037;-81
2023/05/15 09:22:34;;;;;;;13.85;9.25;;;17.50;99.90;;;;;;5019359;28;20037;-81
2023/05/15 09:25:02;;;;;;;11.88;8.48;;;17.60;99.90;;;;;;4989185;28;20120;-81
2023/05/15 09:27:28;;;;;;;14.80;9.50;;;17.70;99.90;;;;;;4977948;28;20042;-81
2023/05/15 09:29:56;;;;;;;10.82;8.10;;;17.80;99.90;;;;;;4999736;28;20033;-81
2023/05/15 09:32:26;;;;;;;11.63;9.13;;;17.90;99.90;;;;;;5016497;28;20099;-81
2023/05/15 09:34:51;;;;;;;14.27;9.55;;;18.00;99.90;;;;;;5020280;28;20477;-82
2023/05/15 09:37:29;;;;;;;14.05;8.32;;;18.10;99.90;;;;;;4988096;28;20078;-81
2023/05/15 09:40:05;;;;;;;11.35;9.27;;;18.20;99.90;;;;;;4980933;28;20051;-81
2023/05/15 09:42:34;;;;;;;13.82;9.65;;;18.30;99.90;;;;;;4982216;28;20141;-81
2023/05/15 09:45:01;;;;;;;12.25;9.32;;;18.30;99.90;;;;;;4956749;28;20478;-81
2023/05/15 09:47:27;;;;;;;12.32;10.00;;;18.20;99.90;;;;;;4976164;28;20050;-81
2023/05/15 09:49:53;;;;;;;15.45;9.80;;;18.20;99.90;;;;;;4974646;28;20478;-81
2023/05/15 09:52:18;;;;;;;12.30;9.80;;;18.30;99.90;;;;;;4973338;28;20035;-81
2023/05/15 09:54:47;;;;;;;13.23;10.07;;;18.40;99.90;;;;;;4957758;28;20050;-80
2023/05/15 09:57:13;;;;;;;11.38;9.52;;;18.50;99.90;;;;;;4978230;28;20493;-80
2023/05/15 09:59:44;;;;;;;11.70;9.15;;;18.50;99.90;;;;;;4979305;28;20050;-81
2023/05/15 10:02:33;;;;;;;12.30;10.05;;;18.60;99.90;;;;;;4981734;28;20470;-82
2023/05/15 10:05:00;;;;;;;12.23;10.15;;;18.70;99.90;;;;;;4973414;28;20050;-81
2023/05/15 10:07:35;;;;;;;12.63;10.63;;;18.70;99.90;;;;;;4983784;28;20046;-81
2023/05/15 10:10:03;;;;;;;11.75;9.82;;;18.70;99.90;;;;;;4978446;28;20042;-80
2023/05/15 10:12:30;;;;;;;14.00;9.43;;;18.70;99.90;;;;;;4981565;28;20034;-82
2023/05/15 10:14:58;;;;;;;11.75;9.90;;;18.70;99.90;;;;;;4984790;28;20045;-82
2023/05/15 10:17:26;;;;;;;12.00;8.50;;;18.80;99.90;;;;;;4995407;28;20042;-82
2023/05/15 10:19:54;;;;;;;11.13;9.30;;;18.90;99.90;;;;;;4987460;28;20187;-81
2023/05/15 10:22:29;;;;;;;13.07;9.30;;;19.10;99.90;;;;;;4978785;28;20108;-82
2023/05/15 10:25:07;;;;;;;11.82;9.75;;;19.20;99.90;;;;;;4979734;28;20504;-81
2023/05/15 10:27:34;;;;;;;12.88;9.20;;;19.30;99.90;;;;;;4984198;28;20043;-81
2023/05/15 10:30:02;;;;;;;11.35;8.80;;;19.50;99.90;;;;;;4986256;28;20515;-81
2023/05/15 10:32:29;;;;;;;12.10;9.55;;;19.50;99.90;;;;;;4990598;28;20045;-81
2023/05/15 10:34:56;;;;;;;12.65;9.00;;;19.60;99.90;;;;;;4981744;28;20050;-80
2023/05/15 10:37:22;;;;;;;11.82;9.70;;;19.70;99.90;;;;;;4960969;28;20058;-81
2023/05/15 10:39:52;;;;;;;11.38;9.30;;;19.70;99.90;;;;;;4976619;28;20097;-81
2023/05/15 10:42:18;;;;;;;12.77;9.90;;;19.70;99.90;;;;;;4975629;28;20042;-81
2023/05/15 10:44:44;;;;;;;13.35;9.35;;;19.80;99.90;;;;;;4982283;28;20030;-81
2023/05/15 10:47:10;;;;;;;10.40;9.13;;;20.00;99.90;;;;;;4985878;28;20042;-83
2023/05/15 10:49:36;;;;;;;11.70;8.70;;;20.00;99.90;;;;;;4976780;28;20606;-82
2023/05/15 10:52:02;;;;;;;12.88;9.07;;;19.90;99.90;;;;;;4980120;28;20481;-84
2023/05/15 10:54:28;;;;;;;12.05;9.50;;;19.90;99.90;;;;;;4977781;28;20481;-83
2023/05/15 10:56:56;;;;;;;11.18;8.85;;;19.80;99.90;;;;;;4981630;28;20517;-82
2023/05/15 10:59:33;;;;;;;9.82;8.32;;;19.80;99.90;;;;;;4984875;28;20041;-81
2023/05/15 11:02:22;;;;;;;11.73;8.57;;;19.70;99.90;;;;;;4979634;28;20077;-80
2023/05/15 11:05:02;;;;;;;9.20;7.47;;;19.70;99.90;;;;;;4958694;28;20039;-81
2023/05/15 11:07:28;;;;;;;11.00;8.70;;;19.60;99.90;;;;;;4978739;28;20122;-82
2023/05/15 11:09:57;;;;;;;10.18;8.05;;;19.60;99.90;;;;;;4978418;28;20034;-83
2023/05/15 11:12:23;;;;;;;10.43;8.40;;;19.60;99.90;;;;;;4972028;28;20049;-83
2023/05/15 11:14:58;;;;;;;10.40;7.55;;;19.60;99.90;;;;;;4958155;28;20042;-83
2023/05/15 11:17:24;;;;;;;12.23;8.75;;;19.70;99.90;;;;;;4977937;28;20125;-83
2023/05/15 11:19:50;;;;;;;9.60;7.88;;;19.80;99.90;;;;;;4977207;28;20066;-83
2023/05/15 11:22:20;;;;;;;14.00;8.80;;;19.80;99.90;;;;;;4981999;28;20502;-82
2023/05/15 11:25:01;;;;;;;12.98;8.55;;;19.80;99.90;;;;;;4984517;28;20031;-83
2023/05/15 11:27:26;;;;;;;13.07;9.43;;;19.70;99.90;;;;;;4978232;28;20224;-82
2023/05/15 11:30:06;;;;;;;11.43;8.45;;;19.80;99.90;;;;;;4982212;28;20046;-82
2023/05/15 11:32:47;;;;;;;9.02;8.02;;;20.00;99.90;;;;;;4976435;28;20561;-86
2023/05/15 11:35:32;;;;;;;11.75;8.45;;;20.00;99.90;;;;;;4975721;28;20498;-81
2023/05/15 11:38:01;;;;;;;13.70;8.70;;;20.10;99.90;;;;;;4966136;28;20050;-81
2023/05/15 11:40:29;;;;;;;10.55;8.57;;;20.20;99.90;;;;;;4984053;28;20051;-80
2023/05/15 11:42:59;;;;;;;9.73;7.60;;;20.30;99.90;;;;;;4985817;28;20485;-82
2023/05/15 11:45:26;;;;;;;10.52;7.78;;;20.30;99.90;;;;;;4979595;28;20114;-81
2023/05/15 11:47:52;;;;;;;9.10;7.30;;;20.40;99.90;;;;;;4978536;28;20046;-80
2023/05/15 11:50:19;;;;;;;8.90;7.10;;;20.50;99.90;;;;;;4987885;28;20173;-81
2023/05/15 11:52:48;;;;;;;7.53;6.20;;;20.40;99.90;;;;;;4978107;28;20054;-80
2023/05/15 11:55:15;;;;;;;10.18;7.22;;;20.60;99.90;;;;;;4974868;28;20055;-80
2023/05/15 11:57:40;;;;;;;9.77;7.53;;;20.70;99.90;;;;;;4982051;28;20116;-80
2023/05/15 12:00:08;;;;;;;10.18;7.82;;;20.70;99.90;;;;;;4978216;28;20136;-82
2023/05/15 12:02:37;;;;;;;11.85;7.90;;;20.60;99.90;;;;;;4973080;28;20583;-80
2023/05/15 12:05:15;;;;;;;10.88;7.68;;;20.60;99.90;;;;;;4974128;28;20038;-82
2023/05/15 12:07:42;;;;;;;9.10;7.22;;;20.60;99.90;;;;;;4973539;28;20039;-81
2023/05/15 12:10:12;;;;;;;8.27;6.82;;;20.50;99.90;;;;;;4964594;28;20038;-81
2023/05/15 12:12:42;;;;;;;8.95;6.97;;;20.50;99.90;;;;;;4981714;28;20042;-82
2023/05/15 12:15:13;;;;;;;11.30;6.90;;;20.60;99.90;;;;;;4977607;28;20041;-82
2023/05/15 12:17:39;;;;;;;8.15;6.78;;;20.70;99.90;;;;;;4979313;28;20054;-81
2023/05/15 12:20:16;;;;;;;9.98;7.10;;;20.80;99.90;;;;;;4982523;28;20116;-81
2023/05/15 12:22:42;;;;;;;9.82;8.02;;;20.60;99.90;;;;;;4951797;28;20112;-80
2023/05/15 12:25:10;;;;;;;9.77;7.38;;;20.50;99.90;;;;;;4943150;28;20125;-80
2023/05/15 12:27:38;;;;;;;9.73;8.23;;;20.50;99.90;;;;;;4963672;28;20043;-81
2023/05/15 12:30:05;;;;;;;11.15;8.13;;;20.40;99.90;;;;;;4968165;28;20042;-82
2023/05/15 12:32:35;;;;;;;11.45;9.88;;;20.40;99.90;;;;;;4933754;28;20050;-81
2023/05/15 12:35:02;;;;;;;13.63;8.93;;;20.50;99.90;;;;;;4939758;28;20468;-81